Time;durP1;ratioP1;P1;durP2;ratioP2;P2;SDS_P1;SDS_P2;PMS_P1;PMS_P2;Temp;Humidity;BMP_temperature;BMP_pressure;BME280_temperature;BME280_humidity;BME280_pressure;Samples;Min_cycle;Max_cycle;Signal;HPM_P1;HPM_P2
2022/03/11 00:02:16;;;;;;;68.65;27.27;;;;;;;-4.16;58.32;103550.80;1726807;82;21735;-89
2022/03/11 00:04:44;;;;;;;64.58;28.12;;;;;;;-4.18;58.43;103554.83;1747594;81;21046;-89
2022/03/11 00:07:11;;;;;;;66.87;28.90;;;;;;;-4.18;58.40;103550.97;1741651;80;21085;-89
2022/03/11 00:09:38;;;;;;;67.03;29.18;;;;;;;-4.21;58.48;103557.91;1718287;81;21053;-86
2022/03/11 00:12:07;;;;;;;71.25;30.43;;;;;;;-4.20;58.69;103563.62;1739026;81;21069;-87
2022/03/11 00:14:35;;;;;;;70.65;31.10;;;;;;;-4.27;58.64;103546.83;1738375;81;21758;-85
2022/03/11 00:17:02;;;;;;;67.85;30.92;;;;;;;-4.19;58.66;103555.53;1724299;81;21566;-89
2022/03/11 00:19:29;;;;;;;66.55;31.25;;;;;;;-4.18;58.68;103561.25;1725831;82;21058;-86
2022/03/11 00:21:55;;;;;;;63.98;30.45;;;;;;;-4.19;58.56;103561.59;1719239;81;21097;-88
2022/03/11 00:24:22;;;;;;;70.55;29.77;;;;;;;-4.22;58.52;103562.84;1761001;81;21015;-88
2022/03/11 00:26:49;;;;;;;72.82;29.80;;;;;;;-4.25;58.52;103559.52;1733840;82;21752;-87
2022/03/11 00:29:16;;;;;;;69.60;29.63;;;;;;;-4.27;58.59;103567.41;1741532;81;21059;-87
2022/03/11 00:31:44;;;;;;;60.98;27.55;;;;;;;-4.31;58.49;103563.52;1739393;82;21015;-87
2022/03/11 00:34:11;;;;;;;70.28;31.00;;;;;;;-4.35;58.54;103556.50;1717318;81;21500;-89
2022/03/11 00:36:38;;;;;;;73.87;33.42;;;;;;;-4.38;58.70;103554.44;1691636;83;21085;-87
2022/03/11 00:39:04;;;;;;;75.37;31.77;;;;;;;-4.37;58.78;103552.44;1760827;80;21735;-88
2022/03/11 00:41:31;;;;;;;77.80;31.33;;;;;;;-4.37;58.96;103552.44;1747823;80;22115;-89
2022/03/11 00:43:58;;;;;;;75.37;29.92;;;;;;;-4.35;58.93;103551.36;1746566;80;21029;-89
2022/03/11 00:46:25;;;;;;;68.40;30.80;;;;;;;-4.35;59.03;103558.70;1756719;80;21010;-88
2022/03/11 00:48:51;;;;;;;76.53;30.52;;;;;;;-4.35;59.08;103565.50;1752240;80;21084;-88
2022/03/11 00:51:18;;;;;;;66.50;27.93;;;;;;;-4.39;58.93;103561.61;1764159;81;21670;-86
2022/03/11 00:53:49;;;;;;;74.85;30.02;;;;;;;-4.43;58.88;103560.65;1768643;81;21066;-88
2022/03/11 00:56:14;;;;;;;70.97;28.95;;;;;;;-4.43;58.94;103567.41;1749465;81;21606;-89
2022/03/11 00:58:41;;;;;;;72.08;29.12;;;;;;;-4.44;58.89;103564.30;1710957;82;21043;-89
2022/03/11 01:01:07;;;;;;;62.30;27.85;;;;;;;-4.45;58.92;103558.21;1698503;83;21123;-87
2022/03/11 01:03:34;;;;;;;78.00;31.00;;;;;;;-4.45;58.95;103561.16;1761811;80;21735;-85
2022/03/11 01:06:01;;;;;;;71.90;28.38;;;;;;;-4.47;59.00;103556.17;1748718;80;21117;-86
2022/03/11 01:08:27;;;;;;;92.37;37.48;;;;;;;-4.45;59.11;103561.16;1753608;80;21910;-86
2022/03/11 01:10:54;;;;;;;81.47;35.05;;;;;;;-4.48;59.11;103554.34;1763720;80;21069;-89
2022/03/11 01:13:21;;;;;;;89.17;34.60;;;;;;;-4.53;59.11;103549.50;1774167;80;21041;-88
2022/03/11 01:15:49;;;;;;;80.90;35.80;;;;;;;-4.52;59.32;103556.88;1772981;80;22449;-88
2022/03/11 01:18:17;;;;;;;86.35;34.27;;;;;;;-4.51;59.42;103554.48;1736668;80;21037;-87
2022/03/11 01:20:43;;;;;;;84.62;34.18;;;;;;;-4.53;59.35;103555.93;1764327;80;21073;-88
2022/03/11 01:23:10;;;;;;;78.65;32.65;;;;;;;-4.57;59.29;103556.26;1760699;80;21382;-88
2022/03/11 01:25:37;;;;;;;76.57;30.80;;;;;;;-4.57;59.45;103552.41;1767616;80;21074;-89
2022/03/11 01:28:03;;;;;;;87.12;30.57;;;;;;;-4.56;59.57;103549.46;1750861;80;21685;-88
2022/03/11 01:30:30;;;;;;;95.85;34.95;;;;;;;-4.58;59.49;103558.28;1731422;81;21586;-85
2022/03/11 01:32:57;;;;;;;84.45;32.75;;;;;;;-4.65;59.33;103546.64;1735505;81;21019;-89
2022/03/11 01:35:24;;;;;;;85.07;32.75;;;;;;;-4.68;59.54;103542.37;1754683;80;21352;-87
2022/03/11 01:37:50;;;;;;;85.67;31.15;;;;;;;-4.84;59.55;103517.61;1747534;81;22005;-87
2022/03/11 01:40:17;;;;;;;91.37;31.60;;;;;;;-4.72;59.75;103541.41;1705283;83;21966;-87
2022/03/11 01:42:44;;;;;;;83.00;32.55;;;;;;;-4.73;59.88;103536.98;1753840;80;21030;-87
2022/03/11 01:45:10;;;;;;;78.52;31.82;;;;;;;-4.70;60.02;103538.30;1763513;81;21108;-89
2022/03/11 01:47:37;;;;;;;72.50;29.40;;;;;;;-4.70;60.14;103537.02;1757486;81;20998;-87
2022/03/11 01:50:05;;;;;;;72.08;30.62;;;;;;;-4.71;60.10;103540.33;1693958;82;21092;-88
2022/03/11 01:52:34;;;;;;;75.70;31.07;;;;;;;-4.71;60.16;103538.09;1675699;83;21709;-88
2022/03/11 01:55:00;;;;;;;80.20;31.00;;;;;;;-4.74;60.17;103535.15;1692602;83;21029;-89
2022/03/11 01:57:26;;;;;;;79.80;33.00;;;;;;;-4.78;60.28;103532.91;1696089;82;21535;-88
2022/03/11 01:59:57;;;;;;;78.92;32.78;;;;;;;-4.80;60.46;103531.78;1698855;82;21039;-88
2022/03/11 02:02:24;;;;;;;77.85;31.15;;;;;;;-4.79;60.58;103535.81;1690199;83;21046;-87
2022/03/11 02:04:51;;;;;;;70.22;30.88;;;;;;;-4.77;60.74;103535.64;1700959;83;21743;-87
2022/03/11 02:07:17;;;;;;;74.95;31.40;;;;;;;-4.77;60.71;103528.31;1693486;84;21078;-87
2022/03/11 02:09:47;;;;;;;77.53;32.10;;;;;;;-4.81;60.74;103533.41;1685296;83;21069;-87
2022/03/11 02:12:32;;;;;;;72.45;30.60;;;;;;;-4.84;60.81;103526.94;1683311;81;38990;-87
2022/03/11 02:15:02;;;;;;;83.52;32.05;;;;;;;-4.87;60.93;103532.61;1681876;84;21618;-88
2022/03/11 02:17:29;;;;;;;77.70;31.20;;;;;;;-4.92;60.98;103532.02;1684367;83;22720;-86
2022/03/11 02:19:56;;;;;;;76.20;31.62;;;;;;;-4.93;61.06;103540.44;1689641;83;21211;-87
2022/03/11 02:22:24;;;;;;;82.22;33.23;;;;;;;-4.94;61.08;103534.72;1696868;83;21074;-90
2022/03/11 02:24:53;;;;;;;79.03;31.70;;;;;;;-4.99;60.91;103526.79;1668371;83;21616;-91
2022/03/11 02:27:21;;;;;;;76.10;32.90;;;;;;;-5.01;61.05;103529.86;1687682;83;21082;-87
2022/03/11 02:29:48;;;;;;;76.62;31.87;;;;;;;-5.04;61.12;103533.33;1694098;84;22559;-90
2022/03/11 02:32:14;;;;;;;75.75;30.48;;;;;;;-5.02;61.30;103543.44;1692320;83;21070;-90
2022/03/11 02:34:41;;;;;;;72.90;31.30;;;;;;;-5.04;61.30;103534.24;1705440;81;21109;-91
2022/03/11 02:37:11;;;;;;;70.30;29.30;;;;;;;-5.09;61.09;103530.13;1728350;82;21102;-91
2022/03/11 02:39:37;;;;;;;76.85;29.67;;;;;;;-5.10;61.03;103532.16;1726974;80;21158;-91
2022/03/11 02:42:05;;;;;;;67.65;28.20;;;;;;;-5.11;61.00;103529.01;1706800;82;22578;-86
2022/03/11 02:44:31;;;;;;;66.37;27.07;;;;;;;-5.13;60.99;103529.17;1722349;80;21121;-86
2022/03/11 02:47:02;;;;;;;69.47;26.80;;;;;;;-5.14;60.98;103531.19;1721829;82;21086;-89
2022/03/11 02:49:48;;;;;;;68.37;28.38;;;;;;;-5.16;61.13;103528.75;1733204;82;21521;-87
2022/03/11 02:52:14;;;;;;;69.62;28.83;;;;;;;-5.16;61.27;103530.03;1713620;81;21679;-88
2022/03/11 02:54:46;;;;;;;72.55;29.60;;;;;;;-5.18;61.29;103541.41;1743298;82;21759;-88
2022/03/11 02:57:17;;;;;;;68.45;27.87;;;;;;;-5.17;61.41;103535.91;1744420;81;21098;-88
2022/03/11 02:59:45;;;;;;;71.33;29.87;;;;;;;-5.16;61.52;103543.82;1753899;80;21519;-85
2022/03/11 03:02:12;;;;;;;66.33;28.98;;;;;;;-5.18;61.59;103545.60;1755277;80;21433;-86
2022/03/11 03:04:38;;;;;;;71.57;28.27;;;;;;;-5.17;61.76;103539.39;1764256;80;21140;-85
2022/03/11 03:07:05;;;;;;;66.15;27.30;;;;;;;-5.15;61.83;103539.23;1746775;80;21191;-86
2022/03/11 03:09:32;;;;;;;73.07;27.85;;;;;;;-5.13;61.86;103544.58;1749902;80;21627;-88
2022/03/11 03:11:58;;;;;;;78.87;30.55;;;;;;;-5.14;61.95;103539.81;1746930;80;21070;-88
2022/03/11 03:14:25;;;;;;;76.35;30.80;;;;;;;-5.15;61.88;103540.89;1757144;79;21758;-89
2022/03/11 03:16:51;;;;;;;86.20;31.75;;;;;;;-5.22;61.89;103530.14;1711248;82;21078;-85
2022/03/11 03:19:18;;;;;;;86.65;31.55;;;;;;;-5.21;62.01;103531.09;1753661;80;22554;-89
2022/03/11 03:21:45;;;;;;;91.70;32.03;;;;;;;-5.24;61.94;103531.95;1772660;80;21603;-88
2022/03/11 03:24:11;;;;;;;84.70;33.13;;;;;;;-5.28;62.03;103526.77;1763653;80;21073;-85
2022/03/11 03:26:38;;;;;;;85.87;32.15;;;;;;;-5.31;62.13;103526.35;1772137;79;21934;-85
2022/03/11 03:29:05;;;;;;;79.62;31.55;;;;;;;-5.32;62.24;103525.81;1717520;81;21031;-85
2022/03/11 03:31:31;;;;;;;80.20;30.23;;;;;;;-5.33;62.26;103525.23;1743729;81;21750;-84
2022/03/11 03:33:59;;;;;;;75.75;31.68;;;;;;;-5.36;62.32;103521.91;1711855;81;21033;-86
2022/03/11 03:36:25;;;;;;;72.20;29.50;;;;;;;-5.36;62.46;103531.26;1716092;82;21560;-87
2022/03/11 03:38:52;;;;;;;66.72;29.23;;;;;;;-5.37;62.46;103534.16;1726635;81;21042;-88
2022/03/11 03:41:19;;;;;;;62.93;27.70;;;;;;;-5.38;62.50;103530.14;1717087;82;21117;-85
2022/03/11 03:43:46;;;;;;;56.35;26.23;;;;;;;-5.38;62.52;103532.70;1714944;82;21759;-88
2022/03/11 03:46:13;;;;;;;60.08;25.60;;;;;;;-5.40;62.53;103536.34;1707678;82;21150;-87
2022/03/11 03:48:39;;;;;;;53.50;24.50;;;;;;;-5.43;62.51;103538.48;1726499;82;21061;-88
2022/03/11 03:51:06;;;;;;;56.95;24.75;;;;;;;-5.45;62.61;103536.45;1708207;82;21376;-85
2022/03/11 03:53:32;;;;;;;62.65;26.70;;;;;;;-5.45;62.50;103542.86;1711264;81;21057;-85
2022/03/11 03:55:59;;;;;;;55.67;23.90;;;;;;;-5.51;62.62;103541.31;1716235;82;22553;-88
2022/03/11 03:58:26;;;;;;;60.33;24.67;;;;;;;-5.51;62.56;103541.68;1720144;82;21125;-89
2022/03/11 04:00:52;;;;;;;52.20;22.35;;;;;;;-5.54;62.58;103536.13;1726634;82;21034;-85
2022/03/11 04:03:19;;;;;;;58.13;23.67;;;;;;;-5.55;62.67;103531.36;1725422;82;21073;-85
2022/03/11 04:05:46;;;;;;;60.83;24.15;;;;;;;-5.57;62.56;103534.45;1732901;82;21654;-85
2022/03/11 04:08:12;;;;;;;59.50;25.70;;;;;;;-5.59;62.59;103538.09;1722064;82;21752;-86
2022/03/11 04:10:39;;;;;;;60.85;23.98;;;;;;;-5.61;62.67;103533.11;1713229;82;21061;-86
2022/03/11 04:13:06;;;;;;;55.80;22.70;;;;;;;-5.63;62.72;103535.84;1724403;82;21038;-85
2022/03/11 04:15:33;;;;;;;61.13;23.85;;;;;;;-5.65;62.71;103543.66;1714381;82;21058;-88
2022/03/11 04:18:03;;;;;;;59.00;23.75;;;;;;;-5.66;62.78;103540.17;1717700;82;21022;-86
2022/03/11 04:20:29;;;;;;;48.33;21.62;;;;;;;-5.64;62.82;103544.23;1732848;82;22567;-88
2022/03/11 04:22:56;;;;;;;45.43;20.92;;;;;;;-5.67;62.72;103556.31;1730726;81;21571;-90
2022/03/11 04:25:23;;;;;;;52.73;21.85;;;;;;;-5.69;62.71;103560.64;1714346;82;21046;-89
2022/03/11 04:27:49;;;;;;;45.25;21.60;;;;;;;-5.72;62.73;103557.69;1714180;82;21610;-89
2022/03/11 04:30:16;;;;;;;60.30;22.05;;;;;;;-5.73;62.83;103555.45;1722559;82;21042;-90
2022/03/11 04:32:43;;;;;;;50.45;21.23;;;;;;;-5.75;62.87;103555.61;1729105;82;21831;-86
2022/03/11 04:35:10;;;;;;;54.90;20.32;;;;;;;-5.77;62.95;103551.00;1710609;82;21221;-86
2022/03/11 04:37:36;;;;;;;45.55;21.60;;;;;;;-5.77;63.08;103546.78;1719878;82;21142;-89
2022/03/11 04:40:07;;;;;;;47.33;21.50;;;;;;;-5.78;63.04;103550.09;1733904;82;21101;-89
2022/03/11 04:42:34;;;;;;;49.18;21.70;;;;;;;-5.80;63.07;103545.11;1722846;82;21081;-89
2022/03/11 04:45:02;;;;;;;46.50;19.57;;;;;;;-5.77;63.28;103548.44;1727028;82;21770;-85
2022/03/11 04:47:29;;;;;;;48.20;20.27;;;;;;;-5.77;63.20;103547.16;1714547;81;21062;-87
2022/03/11 04:49:56;;;;;;;49.45;20.60;;;;;;;-5.81;63.15;103552.22;1724076;82;21066;-85
2022/03/11 04:52:22;;;;;;;44.98;21.65;;;;;;;-5.78;63.44;103559.06;1726467;82;21042;-88
2022/03/11 04:54:49;;;;;;;43.28;19.90;;;;;;;-5.78;63.32;103552.98;1724351;82;21102;-88
2022/03/11 04:57:16;;;;;;;48.65;20.68;;;;;;;-5.78;63.51;103551.37;1716939;82;22553;-88
2022/03/11 04:59:44;;;;;;;54.50;23.38;;;;;;;-5.77;63.43;103552.28;1726405;82;21026;-90
2022/03/11 05:02:10;;;;;;;49.42;19.98;;;;;;;-5.80;63.36;103550.57;1729494;82;21595;-86
2022/03/11 05:04:37;;;;;;;46.35;21.60;;;;;;;-5.79;63.38;103548.59;1716921;82;21074;-88
2022/03/11 05:07:06;;;;;;;58.40;21.55;;;;;;;-5.80;63.38;103538.70;1720399;82;21074;-83
2022/03/11 05:09:32;;;;;;;48.00;22.40;;;;;;;-5.77;63.60;103536.89;1722698;81;22608;-86
2022/03/11 05:11:59;;;;;;;50.65;22.80;;;;;;;-5.72;63.75;103533.31;1722314;81;21540;-88
2022/03/11 05:14:25;;;;;;;49.20;22.87;;;;;;;-5.70;63.70;103530.22;1729458;82;21065;-88
2022/03/11 05:16:52;;;;;;;53.20;22.70;;;;;;;-5.69;63.68;103531.14;1716275;81;21533;-91
2022/03/11 05:19:24;;;;;;;54.77;23.90;;;;;;;-5.68;63.83;103530.06;1704469;82;21551;-90
2022/03/11 05:21:51;;;;;;;53.52;23.87;;;;;;;-5.63;63.84;103531.98;1720159;82;21799;-88
2022/03/11 05:24:17;;;;;;;50.03;23.18;;;;;;;-5.60;63.89;103528.90;1707532;82;21340;-88
2022/03/11 05:26:44;;;;;;;51.53;23.95;;;;;;;-5.56;63.87;103532.44;1724969;82;21046;-86
2022/03/11 05:29:11;;;;;;;62.45;26.20;;;;;;;-5.57;63.85;103519.05;1688556;82;22301;-85
2022/03/11 05:31:37;;;;;;;52.40;26.23;;;;;;;-5.56;63.87;103519.60;1719482;82;21050;-85
2022/03/11 05:34:04;;;;;;;57.03;24.98;;;;;;;-5.55;63.91;103522.75;1720877;81;21751;-83
2022/03/11 05:36:31;;;;;;;52.50;26.20;;;;;;;-5.58;64.00;103515.54;1725254;82;21496;-87
2022/03/11 05:38:57;;;;;;;56.13;26.87;;;;;;;-5.55;64.17;103522.75;1740967;81;21934;-84
2022/03/11 05:41:24;;;;;;;64.87;28.25;;;;;;;-5.54;64.27;103523.30;1730563;82;21057;-86
2022/03/11 05:43:51;;;;;;;63.73;28.77;;;;;;;-5.47;64.51;103529.45;1736112;82;21018;-84
2022/03/11 05:46:18;;;;;;;66.70;28.47;;;;;;;-5.39;64.60;103527.91;1746740;82;21814;-85
2022/03/11 05:48:44;;;;;;;63.80;29.67;;;;;;;-5.33;64.59;103529.08;1730991;82;21046;-88
2022/03/11 05:51:11;;;;;;;62.88;30.05;;;;;;;-5.25;64.66;103540.40;1725586;81;21042;-86
2022/03/11 05:53:37;;;;;;;59.63;29.77;;;;;;;-5.21;64.64;103543.94;1718339;82;21110;-88
2022/03/11 05:56:05;;;;;;;73.78;32.17;;;;;;;-5.19;64.62;103535.70;1738677;81;21107;-88
2022/03/11 05:58:31;;;;;;;77.40;35.65;;;;;;;-5.11;64.66;103540.56;1733987;82;21813;-85
2022/03/11 06:00:58;;;;;;;86.95;38.83;;;;;;;-5.07;64.54;103541.53;1728015;81;21064;-82
2022/03/11 06:03:24;;;;;;;89.20;40.10;;;;;;;-5.01;64.59;103541.08;1721027;82;21083;-88
2022/03/11 06:05:51;;;;;;;81.17;39.40;;;;;;;-4.94;64.71;103547.56;1730787;81;21053;-88
2022/03/11 06:08:18;;;;;;;90.40;41.40;;;;;;;-4.81;64.81;103550.11;1719092;82;21547;-85
2022/03/11 06:10:46;;;;;;;94.20;39.83;;;;;;;-4.70;64.65;103552.44;1736563;82;21779;-83
2022/03/11 06:13:14;;;;;;;94.20;39.18;;;;;;;-4.63;64.46;103558.03;1724503;81;21042;-84
2022/03/11 06:15:41;;;;;;;88.92;39.33;;;;;;;-4.54;64.50;103563.47;1730231;81;21045;-83
2022/03/11 06:18:09;;;;;;;76.60;37.13;;;;;;;-4.48;64.38;103557.83;1735996;81;21018;-84
2022/03/11 06:20:39;;;;;;;85.47;37.25;;;;;;;-4.42;64.28;103558.99;1729301;81;21045;-85
2022/03/11 06:23:10;;;;;;;91.45;39.92;;;;;;;-4.35;64.26;103557.78;1732866;81;21774;-88
2022/03/11 06:25:36;;;;;;;99.22;42.53;;;;;;;-4.26;64.21;103553.84;1740565;80;21598;-88
2022/03/11 06:28:03;;;;;;;112.83;44.63;;;;;;;-4.18;64.09;103558.31;1726255;81;21037;-87
2022/03/11 06:30:30;;;;;;;106.67;46.10;;;;;;;-4.12;64.03;103560.38;1720614;82;21414;-87
2022/03/11 06:32:56;;;;;;;122.37;47.43;;;;;;;-4.01;64.04;103563.43;1717068;81;21598;-86
2022/03/11 06:35:23;;;;;;;125.50;50.67;;;;;;;-3.92;63.88;103562.04;1721864;82;21769;-86
2022/03/11 06:37:54;;;;;;;115.90;46.33;;;;;;;-3.80;63.83;103557.53;1734061;80;21078;-88
2022/03/11 06:40:20;;;;;;;104.83;49.90;;;;;;;-3.72;63.72;103562.94;1719121;82;21660;-86
2022/03/11 06:42:48;;;;;;;116.77;53.92;;;;;;;-3.63;63.69;103554.53;1758571;81;21035;-88
2022/03/11 06:45:15;;;;;;;111.83;49.90;;;;;;;-3.56;63.46;103558.07;1719535;81;21103;-86
2022/03/11 06:47:42;;;;;;;101.45;46.75;;;;;;;-3.47;63.31;103566.05;1727948;82;21821;-87
2022/03/11 06:50:10;;;;;;;103.12;45.05;;;;;;;-3.39;63.10;103560.20;1730741;81;21066;-85
2022/03/11 06:52:36;;;;;;;83.95;40.88;;;;;;;-3.33;63.03;103557.10;1723655;82;21006;-87
2022/03/11 06:55:03;;;;;;;82.30;35.98;;;;;;;-3.33;62.90;103539.08;1723734;82;21403;-87
2022/03/11 06:57:31;;;;;;;71.62;35.50;;;;;;;-3.16;62.87;103569.52;1723738;81;21093;-86
2022/03/11 06:59:58;;;;;;;86.15;37.33;;;;;;;-3.08;62.72;103568.28;1730016;82;21807;-88
2022/03/11 07:02:24;;;;;;;65.92;32.80;;;;;;;-3.01;62.62;103569.61;1738893;81;21068;-88
2022/03/11 07:04:51;;;;;;;69.20;32.45;;;;;;;-2.94;62.54;103573.13;1733237;82;21064;-86
2022/03/11 07:07:18;;;;;;;65.40;27.35;;;;;;;-2.85;62.44;103576.28;1732840;81;21416;-87
2022/03/11 07:09:44;;;;;;;63.38;28.50;;;;;;;-2.76;62.32;103573.22;1725175;82;21068;-87
2022/03/11 07:12:11;;;;;;;56.20;26.77;;;;;;;-2.66;62.21;103571.41;1723072;82;21764;-87
2022/03/11 07:14:37;;;;;;;56.55;26.00;;;;;;;-2.56;62.15;103562.77;1723182;80;21037;-88
2022/03/11 07:17:05;;;;;;;44.88;23.67;;;;;;;-2.45;62.08;103565.38;1720110;81;21077;-87
2022/03/11 07:19:32;;;;;;;50.48;23.85;;;;;;;-2.33;61.93;103565.03;1732192;82;21624;-87
2022/03/11 07:22:00;;;;;;;54.67;26.37;;;;;;;-2.26;61.77;103563.39;1740124;80;21069;-86
2022/03/11 07:24:26;;;;;;;58.98;25.72;;;;;;;-2.16;61.68;103567.66;1720753;82;21752;-87
2022/03/11 07:26:53;;;;;;;48.90;24.12;;;;;;;-2.09;61.51;103562.85;1716223;81;21034;-87
2022/03/11 07:29:20;;;;;;;50.75;24.23;;;;;;;-2.00;61.56;103557.52;1742344;80;21040;-87
2022/03/11 07:31:46;;;;;;;50.60;23.12;;;;;;;-1.91;61.39;103559.00;1798100;77;21063;-88
2022/03/11 07:34:13;;;;;;;43.55;22.73;;;;;;;-1.79;61.45;103553.09;1781689;79;21118;-86
2022/03/11 07:36:48;;;;;;;33.10;17.37;;;;;;;-1.69;61.49;103548.64;1801794;77;21760;-87
2022/03/11 07:39:29;;;;;;;27.50;12.93;;;;;;;-1.58;61.02;103541.80;1796626;77;21066;-87
2022/03/11 07:41:55;;;;;;;24.10;13.83;;;;;;;-1.46;60.45;103544.56;1792248;78;20998;-88
2022/03/11 07:44:22;;;;;;;25.05;13.22;;;;;;;-1.29;60.11;103550.81;1798139;78;21064;-85
2022/03/11 07:46:49;;;;;;;24.27;11.57;;;;;;;-1.19;59.47;103544.67;1785506;77;21316;-88
2022/03/11 07:49:15;;;;;;;21.57;11.70;;;;;;;-1.10;59.33;103544.84;1799701;78;21853;-87
2022/03/11 07:51:50;;;;;;;24.50;12.40;;;;;;;-1.00;59.02;103540.89;1796075;79;21577;-86
2022/03/11 07:54:17;;;;;;;21.50;11.57;;;;;;;-0.90;58.82;103536.79;1801316;78;21078;-88
2022/03/11 07:57:03;;;;;;;21.00;12.60;;;;;;;-0.79;58.67;103541.19;1793760;78;21407;-88
2022/03/11 07:59:31;;;;;;;23.65;11.75;;;;;;;-0.68;58.56;103532.06;1672190;84;21105;-89
2022/03/11 08:01:59;;;;;;;21.15;11.22;;;;;;;-0.55;58.28;103539.95;1680946;85;21948;-85
2022/03/11 08:04:26;;;;;;;21.12;10.80;;;;;;;-0.46;58.02;103535.45;1674638;85;21095;-86
2022/03/11 08:06:53;;;;;;;25.57;11.43;;;;;;;-0.34;57.75;103537.20;1673484;84;21139;-88
2022/03/11 08:09:19;;;;;;;20.20;11.15;;;;;;;-0.25;57.40;103536.96;1677881;83;21111;-87
2022/03/11 08:12:25;;;;;;;18.75;10.82;;;;;;;-0.14;57.09;103538.19;1680335;85;21041;-87
2022/03/11 08:14:57;;;;;;;17.57;9.55;;;;;;;-0.06;56.86;103541.63;1571601;90;22581;-86
2022/03/11 08:17:23;;;;;;;18.80;10.15;;;;;;;0.05;56.49;103544.14;1589279;88;21104;-88
2022/03/11 08:19:50;;;;;;;17.87;10.28;;;;;;;0.15;56.20;103543.11;1577971;90;21120;-88
2022/03/11 08:22:17;;;;;;;20.23;9.63;;;;;;;0.25;55.89;103538.61;1559279;91;21372;-88
2022/03/11 08:24:44;;;;;;;21.65;9.88;;;;;;;0.33;55.50;103530.02;1581790;89;21151;-88
2022/03/11 08:27:25;;;;;;;22.93;9.58;;;;;;;0.40;55.30;103527.35;1576724;89;21877;-89
2022/03/11 08:30:00;;;;;;;18.70;9.10;;;;;;;0.46;54.87;103528.02;1552994;91;21151;-88
2022/03/11 08:32:27;;;;;;;16.60;9.63;;;;;;;0.52;54.54;103527.39;1520096;92;21140;-89
2022/03/11 08:34:55;;;;;;;16.55;8.95;;;;;;;0.60;54.46;103526.03;1522949;92;21660;-89
2022/03/11 08:37:22;;;;;;;16.37;9.30;;;;;;;0.66;54.24;103522.83;1551911;90;21134;-88
2022/03/11 08:39:49;;;;;;;15.75;8.33;;;;;;;0.74;54.02;103520.69;1554198;90;21850;-90
2022/03/11 08:42:16;;;;;;;16.30;8.60;;;;;;;0.81;53.74;103521.91;1550575;90;21100;-89
2022/03/11 08:45:30;;;;;;;15.00;8.88;;;;;;;0.90;53.53;103516.78;1541215;91;21163;-89
2022/03/11 08:47:57;;;;;;;20.85;10.13;;;;;;;0.95;53.30;103516.52;1478918;96;21466;-88
2022/03/11 08:50:23;;;;;;;17.67;9.45;;;;;;;1.03;52.90;103528.11;1531323;92;21106;-92
2022/03/11 08:52:50;;;;;;;14.18;9.05;;;;;;;1.07;52.74;103528.98;1559383;90;21794;-91
2022/03/11 08:55:17;;;;;;;15.90;8.78;;;;;;;1.09;52.40;103524.87;1581934;89;21157;-89
2022/03/11 08:57:50;;;;;;;15.88;9.08;;;;;;;1.13;52.29;103523.18;1568198;90;21227;-91
2022/03/11 09:00:16;;;;;;;13.50;7.62;;;;;;;1.21;52.15;103523.61;1548999;91;21072;-90
2022/03/11 09:02:44;;;;;;;16.00;8.63;;;;;;;1.30;52.06;103522.39;1573344;88;21812;-87
2022/03/11 09:05:10;;;;;;;16.20;9.05;;;;;;;1.37;51.76;103522.30;1582654;89;21802;-88
2022/03/11 09:07:37;;;;;;;14.40;8.78;;;;;;;1.43;51.56;103520.34;1574837;89;21042;-86
2022/03/11 09:10:05;;;;;;;17.60;9.95;;;;;;;1.50;51.47;103510.22;1568327;88;21125;-88
2022/03/11 09:12:32;;;;;;;14.50;9.33;;;;;;;1.59;51.40;103521.58;1563642;90;21516;-86
2022/03/11 09:14:58;;;;;;;17.12;9.50;;;;;;;1.64;51.25;103510.02;1559983;89;21305;-89
2022/03/11 09:17:25;;;;;;;17.40;8.45;;;;;;;1.69;51.16;103509.18;1564479;91;21648;-88
2022/03/11 09:19:52;;;;;;;18.75;9.53;;;;;;;1.73;50.99;103513.58;1572489;90;21128;-89
2022/03/11 09:22:19;;;;;;;17.02;9.08;;;;;;;1.81;50.94;103515.68;1699552;79;21068;-87
2022/03/11 09:24:56;;;;;;;16.12;9.50;;;;;;;1.86;50.80;103513.55;1688967;83;21517;-89
2022/03/11 09:27:24;;;;;;;13.78;8.48;;;;;;;1.87;50.55;103516.31;1734055;80;21131;-88
2022/03/11 09:29:52;;;;;;;17.10;9.10;;;;;;;1.89;50.46;103516.48;1688148;81;21780;-87
2022/03/11 09:32:19;;;;;;;15.63;8.60;;;;;;;1.93;50.39;103513.44;1747342;79;21602;-86
2022/03/11 09:34:47;;;;;;;13.93;7.92;;;;;;;2.00;50.32;103505.52;1769469;79;21041;-85
2022/03/11 09:37:14;;;;;;;12.43;8.13;;;;;;;2.07;50.06;103513.20;1763694;79;21119;-88
2022/03/11 09:39:41;;;;;;;16.07;8.80;;;;;;;2.12;49.82;103513.31;1792873;77;21134;-88
2022/03/11 09:42:07;;;;;;;15.20;7.90;;;;;;;2.11;49.62;103504.95;1786349;79;21778;-86
2022/03/11 09:44:34;;;;;;;12.45;6.83;;;;;;;2.16;49.40;103501.91;1772720;77;21102;-84
2022/03/11 09:47:01;;;;;;;14.30;8.35;;;;;;;2.19;49.02;103501.84;1785556;79;21082;-86
2022/03/11 09:49:33;;;;;;;14.80;8.33;;;;;;;2.17;48.97;103498.56;1797049;77;21027;-86
2022/03/11 09:51:56;;;;;;;15.38;8.23;;;;;;;2.19;48.88;103497.04;1802649;79;21020;-85
2022/03/11 09:54:23;;;;;;;12.93;7.47;;;;;;;2.21;48.64;103499.41;1775359;78;21747;-87
2022/03/11 09:56:50;;;;;;;13.22;8.65;;;;;;;2.25;48.80;103493.77;1799996;79;21074;-92
2022/03/11 09:59:16;;;;;;;15.55;7.87;;;;;;;2.26;48.54;103491.33;1789809;78;21067;-87
2022/03/11 10:01:51;;;;;;;14.78;8.48;;;;;;;2.29;48.29;103490.71;1770510;79;21639;-89
2022/03/11 10:04:17;;;;;;;11.50;6.60;;;;;;;2.31;48.17;103492.73;1770114;80;21122;-92
2022/03/11 10:06:45;;;;;;;21.68;7.42;;;;;;;2.31;47.72;103490.13;1807629;77;21756;-87
2022/03/11 10:09:24;;;;;;;12.80;7.40;;;;;;;2.30;47.54;103499.06;1805759;77;21043;-91
2022/03/11 10:11:56;;;;;;;15.98;7.65;;;;;;;2.33;47.55;103492.50;1780954;77;21047;-86
2022/03/11 10:14:31;;;;;;;13.22;7.30;;;;;;;2.37;47.33;103495.03;1781388;77;21754;-92
2022/03/11 10:16:59;;;;;;;15.80;7.90;;;;;;;2.37;47.04;103491.53;1762609;80;21069;-87
2022/03/11 10:19:26;;;;;;;13.15;7.75;;;;;;;2.34;46.98;103491.72;1797291;78;21756;-87
2022/03/11 10:21:57;;;;;;;17.65;9.88;;;;;;;2.39;46.96;103489.61;1788879;79;21075;-91
2022/03/11 10:24:23;;;;;;;11.10;7.28;;;;;;;2.45;46.91;103491.52;1779021;79;21058;-90
2022/03/11 10:26:52;;;;;;;11.63;7.35;;;;;;;2.53;46.76;103491.95;1790589;79;21538;-88
2022/03/11 10:29:21;;;;;;;9.45;5.80;;;;;;;2.62;46.56;103485.83;1791908;79;21070;-90
2022/03/11 10:31:51;;;;;;;11.80;6.72;;;;;;;2.66;46.17;103485.36;1793159;79;21747;-91
2022/03/11 10:34:34;;;;;;;10.48;6.20;;;;;;;2.67;45.81;103485.92;1787663;79;21605;-89
2022/03/11 10:37:09;;;;;;;16.40;6.62;;;;;;;2.70;45.73;103474.50;1789747;78;21070;-89
2022/03/11 10:39:47;;;;;;;12.63;7.15;;;;;;;2.78;45.70;103472.31;1785151;79;21168;-92
2022/03/11 10:42:23;;;;;;;12.07;7.22;;;;;;;2.86;45.42;103472.68;1816974;77;21066;-88
2022/03/11 10:44:59;;;;;;;11.15;7.42;;;;;;;2.96;45.49;103474.90;1779124;79;21735;-89
2022/03/11 10:47:33;;;;;;;11.43;6.83;;;;;;;3.08;45.48;103468.33;1798896;79;21035;-90
2022/03/11 10:50:13;;;;;;;12.58;7.45;;;;;;;3.14;45.23;103458.91;1787507;78;21068;-89
2022/03/11 10:52:44;;;;;;;12.15;7.08;;;;;;;3.21;45.19;103463.56;1792768;79;21047;-89
2022/03/11 10:55:26;;;;;;;15.78;6.92;;;;;;;3.27;44.93;103461.55;1763609;79;21093;-89
2022/03/11 10:57:54;;;;;;;13.20;6.80;;;;;;;3.29;44.87;103463.01;1786339;79;21762;-89
2022/03/11 11:00:48;;;;;;;17.30;7.65;;;;;;;3.28;44.64;103454.65;1793087;78;21086;-88
2022/03/11 11:03:15;;;;;;;12.78;7.28;;;;;;;3.29;44.72;103455.20;1794775;79;21834;-90
2022/03/11 11:05:44;;;;;;;12.80;7.35;;;;;;;3.27;44.67;103452.44;1769702;79;21098;-87
2022/03/11 11:08:13;;;;;;;14.15;6.92;;;;;;;3.28;44.64;103450.39;1802174;77;21026;-87
2022/03/11 11:10:43;;;;;;;17.60;7.75;;;;;;;3.33;44.59;103444.31;1791785;78;21511;-86
2022/03/11 11:13:09;;;;;;;13.60;8.30;;;;;;;3.35;44.48;103445.77;1798572;78;21070;-91
2022/03/11 11:15:43;;;;;;;20.70;11.60;;;;;;;3.37;44.38;103439.02;1798544;79;21082;-92
2022/03/11 11:18:13;;;;;;;14.78;8.30;;;;;;;3.39;44.46;103442.30;1798573;77;21633;-86
2022/03/11 11:20:56;;;;;;;17.35;9.15;;;;;;;3.46;44.28;103438.62;1813200;78;21132;-89